createdAt,value
2022-10-18T00:04:50.613Z,32.45
2022-10-18T00:09:52.449Z,36.55
2022-10-18T00:14:54.146Z,38.88
2022-10-18T00:19:55.821Z,33.03
2022-10-18T00:24:57.522Z,39.60
2022-10-18T00:29:59.369Z,33.42
2022-10-18T00:35:01.018Z,32.83
2022-10-18T00:40:02.772Z,34.58
2022-10-18T00:45:07.555Z,31.60
2022-10-18T00:50:10.394Z,34.38
2022-10-18T00:55:12.645Z,28.83
2022-10-18T01:00:14.888Z,35.13
2022-10-18T01:05:18.960Z,36.28
2022-10-18T01:10:33.534Z,33.75
2022-10-18T01:15:45.460Z,35.00
2022-10-18T01:21:20.257Z,30.52
2022-10-18T01:26:53.142Z,34.63
2022-10-18T01:32:02.552Z,37.50
2022-10-18T01:37:09.424Z,36.88
2022-10-18T01:42:14.739Z,33.88
2022-10-18T01:47:17.321Z,32.58
2022-10-18T01:52:19.119Z,32.83
2022-10-18T01:57:41.654Z,30.55
2022-10-18T02:02:55.480Z,32.95
2022-10-18T02:08:22.123Z,37.42
2022-10-18T02:13:30.643Z,29.77
2022-10-18T02:18:46.887Z,32.80
2022-10-18T02:23:49.041Z,30.77
2022-10-18T02:28:51.595Z,35.38
2022-10-18T02:34:32.197Z,35.83
2022-10-18T02:39:36.779Z,32.42
2022-10-18T02:44:39.221Z,28.02
2022-10-18T02:49:40.858Z,30.85
2022-10-18T02:54:42.519Z,30.00
2022-10-18T02:59:44.218Z,28.17
2022-10-18T03:04:45.876Z,26.00
2022-10-18T03:09:47.562Z,32.00
2022-10-18T03:14:49.252Z,27.63
2022-10-18T03:19:50.946Z,25.17
2022-10-18T03:24:53.119Z,32.17
2022-10-18T03:29:54.844Z,25.40
2022-10-18T03:34:56.572Z,27.98
2022-10-18T03:39:58.233Z,28.75
2022-10-18T03:44:59.972Z,36.63
2022-10-18T03:50:01.712Z,24.33
2022-10-18T03:55:04.021Z,22.50
2022-10-18T04:00:06.445Z,22.50
2022-10-18T04:05:14.202Z,27.42
2022-10-18T04:10:16.571Z,20.35
2022-10-18T04:15:18.224Z,21.00
2022-10-18T04:20:19.891Z,21.15
2022-10-18T04:25:22.339Z,21.92
2022-10-18T04:30:24.023Z,25.88
2022-10-18T04:35:26.165Z,27.13
2022-10-18T04:40:27.816Z,17.83
2022-10-18T04:45:29.519Z,20.27
2022-10-18T04:50:31.246Z,20.23
2022-10-18T04:55:32.919Z,20.05
2022-10-18T05:00:39.809Z,24.60
2022-10-18T05:06:00.803Z,26.75
2022-10-18T05:11:03.929Z,22.10
2022-10-18T05:16:05.996Z,22.80
2022-10-18T05:21:07.676Z,22.75
2022-10-18T05:26:09.653Z,21.52
2022-10-18T05:31:11.917Z,22.77
2022-10-18T05:36:13.639Z,19.10
2022-10-18T05:41:15.373Z,20.27
2022-10-18T05:46:17.352Z,20.70
2022-10-18T05:51:19.970Z,21.45
2022-10-18T05:56:22.091Z,22.80
2022-10-18T06:01:24.347Z,19.88
2022-10-18T06:06:28.412Z,23.63
2022-10-18T06:11:31.274Z,25.23
2022-10-18T06:16:33.167Z,24.38
2022-10-18T06:21:35.126Z,26.42
2022-10-18T06:26:37.538Z,25.42
2022-10-18T06:31:39.900Z,29.50
2022-10-18T06:36:41.785Z,33.20
2022-10-18T06:41:44.910Z,28.10
2022-10-18T06:46:55.889Z,27.58
2022-10-18T06:51:57.842Z,29.98
2022-10-18T06:57:02.667Z,35.38
2022-10-18T07:02:04.493Z,33.97
2022-10-18T07:07:06.802Z,33.40
2022-10-18T07:12:09.116Z,43.30
2022-10-18T07:17:11.559Z,31.20
2022-10-18T07:22:13.646Z,32.70
2022-10-18T07:27:15.358Z,33.25
2022-10-18T07:32:17.023Z,33.38
2022-10-18T07:37:18.737Z,30.40
2022-10-18T07:42:20.473Z,28.25
2022-10-18T07:47:22.165Z,28.67
2022-10-18T07:52:25.668Z,26.27
2022-10-18T07:57:28.203Z,25.13
2022-10-18T08:02:29.864Z,28.58
2022-10-18T08:07:33.798Z,31.25
2022-10-18T08:12:35.729Z,27.88
2022-10-18T08:17:37.893Z,31.10
2022-10-18T08:22:39.793Z,28.67
2022-10-18T08:27:41.471Z,29.88
2022-10-18T08:32:43.341Z,29.08
2022-10-18T08:37:45.495Z,29.05
2022-10-18T08:42:54.790Z,25.70
2022-10-18T08:47:57.915Z,27.33
2022-10-18T08:53:21.799Z,27.85
2022-10-18T08:58:26.835Z,32.67
2022-10-18T09:04:09.557Z,38.60
2022-10-18T09:09:20.336Z,48.03
2022-10-18T09:14:47.003Z,34.38
2022-10-18T09:20:28.843Z,27.52
2022-10-18T09:25:37.493Z,33.03
2022-10-18T09:30:59.465Z,27.20
2022-10-18T09:36:05.134Z,32.78
2022-10-18T09:41:19.181Z,32.08
2022-10-18T09:46:24.925Z,30.27
2022-10-18T09:51:38.866Z,28.23
2022-10-18T09:56:48.885Z,35.38
2022-10-18T10:01:50.558Z,32.97
2022-10-18T10:06:54.801Z,34.65
2022-10-18T10:11:57.742Z,24.67
2022-10-18T10:17:20.755Z,25.38
2022-10-18T10:22:37.217Z,36.97
2022-10-18T10:27:45.946Z,28.52
2022-10-18T10:32:49.719Z,24.60
2022-10-18T10:37:53.358Z,23.98
2022-10-18T10:43:12.735Z,29.05
2022-10-18T10:48:19.463Z,31.45
2022-10-18T10:53:39.637Z,34.40
2022-10-18T10:58:41.633Z,41.15
2022-10-18T11:03:51.784Z,42.03
2022-10-18T11:08:54.301Z,39.20
2022-10-18T11:14:25.421Z,31.52
2022-10-18T11:19:55.148Z,34.35
2022-10-18T11:24:56.825Z,32.03
2022-10-18T11:30:07.760Z,33.13
2022-10-18T11:35:23.544Z,34.85
2022-10-18T11:40:30.911Z,28.88
2022-10-18T11:46:04.001Z,24.60
2022-10-18T11:51:33.994Z,21.13
2022-10-18T11:57:02.070Z,17.23
2022-10-18T12:02:42.351Z,14.30
2022-10-18T12:07:53.165Z,14.40
2022-10-18T12:13:02.812Z,8.23
2022-10-18T12:18:14.981Z,7.65
2022-10-18T12:23:18.376Z,6.80
2022-10-18T12:28:34.014Z,8.95
2022-10-18T12:33:42.717Z,4.90
2022-10-18T12:38:48.049Z,4.97
2022-10-18T12:44:20.619Z,5.25
2022-10-18T12:49:30.213Z,8.18
2022-10-18T12:54:34.560Z,15.93
2022-10-18T12:59:36.173Z,5.07
2022-10-18T13:04:38.363Z,1.65
2022-10-18T13:10:12.854Z,2.35
2022-10-18T13:15:36.501Z,3.20
2022-10-18T13:20:38.091Z,3.42
2022-10-18T13:26:44.222Z,2.38
2022-10-18T13:32:05.596Z,5.35
2022-10-18T13:37:10.042Z,1.70
2022-10-18T13:42:14.486Z,4.00
2022-10-18T13:47:33.956Z,4.25
2022-10-18T13:52:59.066Z,3.25
2022-10-18T13:58:14.624Z,2.25
2022-10-18T14:04:01.942Z,3.70
2022-10-18T14:09:25.503Z,2.85
2022-10-18T14:14:59.780Z,2.67
2022-10-18T14:20:13.624Z,2.95
2022-10-18T14:25:26.973Z,1.70
2022-10-18T14:30:28.620Z,2.45
2022-10-18T14:35:35.287Z,2.30
2022-10-18T14:40:40.661Z,3.38
2022-10-18T14:45:42.867Z,3.40
2022-10-18T14:50:47.315Z,2.63
2022-10-18T14:55:56.575Z,2.33
2022-10-18T15:00:59.542Z,2.13
2022-10-18T15:06:05.197Z,1.30
2022-10-18T15:11:10.550Z,2.20
2022-10-18T15:16:20.711Z,3.72
2022-10-18T15:21:24.277Z,3.67
2022-10-18T15:26:30.100Z,2.53
2022-10-18T15:31:34.997Z,3.67
2022-10-18T15:36:37.859Z,3.47
2022-10-18T15:41:55.930Z,2.83
2022-10-18T15:47:30.195Z,6.75
2022-10-18T15:52:39.005Z,3.55
2022-10-18T15:57:41.106Z,2.75
2022-10-18T16:02:42.807Z,5.40
2022-10-18T16:07:44.458Z,2.25
2022-10-18T16:12:46.475Z,2.60
2022-10-18T16:17:49.492Z,4.25
2022-10-18T16:22:51.144Z,4.35
2022-10-18T16:27:52.841Z,4.97
2022-10-18T16:32:54.491Z,6.32
2022-10-18T16:37:56.239Z,5.55
2022-10-18T16:42:57.923Z,4.07
2022-10-18T16:47:59.598Z,9.07
2022-10-18T16:53:01.255Z,5.05
2022-10-18T16:58:03.056Z,3.97
2022-10-18T17:03:04.690Z,4.60
2022-10-18T17:08:06.768Z,6.03
2022-10-18T17:13:08.483Z,4.18
2022-10-18T17:18:19.265Z,4.43
2022-10-18T17:23:20.937Z,5.15
2022-10-18T17:28:22.639Z,8.05
2022-10-18T17:33:24.290Z,4.65
2022-10-18T17:38:25.933Z,5.70
2022-10-18T17:43:28.872Z,6.30
2022-10-18T17:48:30.648Z,6.10
2022-10-18T17:53:32.948Z,5.45
2022-10-18T17:58:35.511Z,6.72
2022-10-18T18:03:37.331Z,7.40
2022-10-18T18:08:38.985Z,7.38
2022-10-18T18:13:41.531Z,8.35
2022-10-18T18:18:43.894Z,11.25
2022-10-18T18:23:46.059Z,13.27
2022-10-18T18:28:49.324Z,10.60
2022-10-18T18:33:52.763Z,11.98
2022-10-18T18:38:57.076Z,11.80
2022-10-18T18:44:02.322Z,12.30
2022-10-18T18:49:05.343Z,12.20
2022-10-18T18:54:08.732Z,11.07
2022-10-18T18:59:14.605Z,13.05
2022-10-18T19:04:17.021Z,12.30
2022-10-18T19:09:20.619Z,11.88
2022-10-18T19:14:25.138Z,12.98
2022-10-18T19:19:29.734Z,13.07
2022-10-18T19:24:32.120Z,15.65
2022-10-18T19:29:35.928Z,11.82
2022-10-18T19:34:37.775Z,12.18
2022-10-18T19:39:39.602Z,11.95
2022-10-18T19:44:42.187Z,17.65
2022-10-18T19:49:44.273Z,12.93
2022-10-18T19:54:48.502Z,13.07
2022-10-18T19:59:50.487Z,14.68
2022-10-18T20:04:52.157Z,18.65
2022-10-18T20:09:53.811Z,13.68
2022-10-18T20:14:55.492Z,14.85
2022-10-18T20:19:57.219Z,12.52
2022-10-18T20:24:58.870Z,16.58
2022-10-18T20:30:00.529Z,15.57
2022-10-18T20:35:02.175Z,20.00
2022-10-18T20:40:04.092Z,16.23
2022-10-18T20:45:10.587Z,17.88
2022-10-18T20:50:12.315Z,16.33
2022-10-18T20:55:14.030Z,16.48
2022-10-18T21:00:15.854Z,22.70
2022-10-18T21:05:18.386Z,19.10
2022-10-18T21:10:20.065Z,17.92
2022-10-18T21:15:21.743Z,17.48
2022-10-18T21:20:23.396Z,16.27
2022-10-18T21:25:25.092Z,19.80
2022-10-18T21:30:26.786Z,16.33
2022-10-18T21:35:28.427Z,16.15
2022-10-18T21:40:30.622Z,22.40
2022-10-18T21:45:32.268Z,15.90
2022-10-18T21:50:34.296Z,16.83
2022-10-18T21:55:36.208Z,19.80
2022-10-18T22:00:39.281Z,21.42
2022-10-18T22:05:40.967Z,26.40
2022-10-18T22:10:42.619Z,16.75
2022-10-18T22:15:44.267Z,17.23
2022-10-18T22:21:00.802Z,38.22
2022-10-18T22:26:07.715Z,28.02
2022-10-18T22:31:18.067Z,28.90
2022-10-18T22:36:19.723Z,40.13
2022-10-18T22:41:21.800Z,42.08
2022-10-18T22:46:23.513Z,50.10
2022-10-18T22:51:25.678Z,44.20
2022-10-18T22:56:27.368Z,45.47
2022-10-18T23:01:29.049Z,44.40
2022-10-18T23:06:36.159Z,43.55
2022-10-18T23:11:38.224Z,42.08
2022-10-18T23:16:39.879Z,39.20
2022-10-18T23:21:41.838Z,40.90
2022-10-18T23:26:43.507Z,42.47
2022-10-18T23:31:45.201Z,45.53
2022-10-18T23:36:47.006Z,34.70
2022-10-18T23:41:48.679Z,31.55
2022-10-18T23:46:50.331Z,31.70
2022-10-18T23:51:51.990Z,36.83
2022-10-18T23:56:53.623Z,35.53
